Time;durP1;ratioP1;P1;durP2;ratioP2;P2;SDS_P1;SDS_P2;PMS_P1;PMS_P2;Temp;Humidity;BMP_temperature;BMP_pressure;BME280_temperature;BME280_humidity;BME280_pressure;Samples;Min_cycle;Max_cycle;Signal;HPM_P1;HPM_P2
2022/08/16 00:00:45;;;;;;;9.23;6.93;;;;;;;19.02;93.39;100406.59;5232305;28;20028;-67
2022/08/16 00:03:16;;;;;;;10.30;7.00;;;;;;;19.02;93.21;100395.78;5203431;28;20036;-66
2022/08/16 00:05:48;;;;;;;8.32;7.15;;;;;;;19.00;93.27;100395.94;5241768;28;20505;-66
2022/08/16 00:08:19;;;;;;;10.05;7.57;;;;;;;19.00;95.67;100399.50;5222509;28;21763;-66
2022/08/16 00:10:50;;;;;;;8.15;7.13;;;;;;;18.96;95.59;100394.63;5242535;28;20030;-66
2022/08/16 00:13:22;;;;;;;8.55;7.10;;;;;;;18.86;94.42;100402.19;5240945;28;20042;-66
2022/08/16 00:15:53;;;;;;;9.57;7.43;;;;;;;18.84;94.90;100404.22;5246310;28;20045;-67
2022/08/16 00:18:24;;;;;;;8.00;7.20;;;;;;;18.82;95.97;100401.69;5219827;28;20034;-66
2022/08/16 00:20:57;;;;;;;8.05;7.25;;;;;;;18.77;95.17;100406.75;5226540;28;20377;-66
2022/08/16 00:23:28;;;;;;;9.07;7.95;;;;;;;18.79;97.71;100404.72;5244199;28;20026;-66
2022/08/16 00:25:59;;;;;;;10.18;7.82;;;;;;;18.77;97.37;100406.75;5226559;28;20403;-66
2022/08/16 00:28:31;;;;;;;12.45;8.45;;;;;;;18.74;96.63;100417.97;5245584;28;20040;-66
2022/08/16 00:31:02;;;;;;;9.48;7.75;;;;;;;18.62;96.19;100414.84;5240186;28;20035;-67
2022/08/16 00:33:33;;;;;;;8.75;7.85;;;;;;;18.68;97.63;100421.34;5220195;28;20024;-67
2022/08/16 00:36:05;;;;;;;9.35;8.00;;;;;;;18.62;96.10;100417.56;5232563;28;20036;-66
2022/08/16 00:38:36;;;;;;;9.13;7.75;;;;;;;18.60;95.93;100423.13;5220983;28;20026;-67
2022/08/16 00:41:08;;;;;;;8.93;7.53;;;;;;;18.57;97.90;100415.38;5241815;28;20031;-66
2022/08/16 00:43:39;;;;;;;12.68;8.02;;;;;;;18.50;97.25;100417.09;5211916;28;20049;-66
2022/08/16 00:46:19;;;;;;;10.30;8.27;;;;;;;18.56;98.31;100420.94;5232424;28;20110;-66
2022/08/16 00:48:51;;;;;;;13.43;8.95;;;;;;;18.51;97.34;100421.50;5215451;28;20017;-66
2022/08/16 00:51:24;;;;;;;11.73;8.90;;;;;;;18.54;99.66;100426.56;5240668;28;20668;-67
2022/08/16 00:53:55;;;;;;;12.75;9.25;;;;;;;18.50;99.87;100425.22;5235249;28;20043;-66
2022/08/16 00:56:30;;;;;;;11.60;9.63;;;;;;;18.50;99.46;100430.63;5203622;28;20031;-66
2022/08/16 00:59:03;;;;;;;13.30;8.80;;;;;;;18.38;99.33;100424.78;5203008;28;20117;-66
2022/08/16 01:01:35;;;;;;;11.73;9.20;;;;;;;18.37;99.87;100433.94;5226190;28;20670;-66
2022/08/16 01:04:08;;;;;;;12.77;9.32;;;;;;;18.33;99.97;100435.31;5208057;28;20033;-66
2022/08/16 01:06:39;;;;;;;12.98;8.68;;;;;;;18.39;100.00;100431.06;5228498;28;20038;-67
2022/08/16 01:09:11;;;;;;;13.55;9.75;;;;;;;18.40;100.00;100425.44;5211175;27;20022;-67
2022/08/16 01:11:43;;;;;;;11.32;8.93;;;;;;;18.31;100.00;100433.78;5209980;28;20025;-67
2022/08/16 01:14:20;;;;;;;13.30;9.75;;;;;;;18.27;100.00;100430.59;5227753;28;20117;-66
2022/08/16 01:16:52;;;;;;;11.48;9.55;;;;;;;18.25;100.00;100423.69;5204445;28;20044;-66
2022/08/16 01:19:34;;;;;;;13.63;9.88;;;;;;;18.28;100.00;100426.06;5207367;28;20030;-67
2022/08/16 01:22:26;;;;;;;12.27;9.95;;;;;;;18.36;100.00;100428.69;5209496;28;20053;-67
2022/08/16 01:25:11;;;;;;;17.48;10.80;;;;;;;18.22;100.00;100428.44;5209855;28;20057;-68
2022/08/16 01:27:47;;;;;;;12.00;10.52;;;;;;;18.18;100.00;100437.09;5202156;28;20041;-67
2022/08/16 01:30:23;;;;;;;12.88;10.52;;;;;;;18.17;100.00;100433.53;5212321;28;20040;-67
2022/08/16 01:32:57;;;;;;;11.90;9.95;;;;;;;18.11;100.00;100426.13;5212934;28;20041;-67
2022/08/16 01:35:34;;;;;;;14.40;11.18;;;;;;;18.18;100.00;100432.50;5228196;28;20454;-66
2022/08/16 01:38:26;;;;;;;13.60;11.13;;;;;;;18.18;100.00;100429.81;5205084;28;20033;-67
2022/08/16 01:41:03;;;;;;;13.07;11.38;;;;;;;18.14;100.00;100422.22;5232967;28;20042;-66
2022/08/16 01:43:37;;;;;;;14.45;11.13;;;;;;;18.12;100.00;100435.94;5211841;28;20529;-67
2022/08/16 01:46:37;;;;;;;13.80;11.23;;;;;;;18.07;100.00;100432.06;5203696;28;20030;-66
2022/08/16 01:49:23;;;;;;;13.95;11.05;;;;;;;18.11;100.00;100434.22;5203572;28;20029;-67
2022/08/16 01:52:01;;;;;;;15.02;11.63;;;;;;;18.10;100.00;100427.16;5221510;28;20034;-66
2022/08/16 01:54:33;;;;;;;15.38;12.07;;;;;;;18.05;100.00;100426.00;5207442;28;20786;-67
2022/08/16 01:57:06;;;;;;;13.90;10.90;;;;;;;18.10;100.00;100424.47;5219001;28;20432;-66
2022/08/16 01:59:38;;;;;;;16.50;11.90;;;;;;;18.02;100.00;100430.75;5209367;28;20484;-66
2022/08/16 02:02:09;;;;;;;15.98;11.75;;;;;;;17.91;100.00;100428.44;5203941;28;20026;-66
2022/08/16 02:04:41;;;;;;;13.82;11.63;;;;;;;17.98;100.00;100434.78;5212893;28;20033;-67
2022/08/16 02:07:14;;;;;;;16.30;11.32;;;;;;;17.92;100.00;100434.66;5219058;28;20069;-67
2022/08/16 02:09:47;;;;;;;14.57;11.85;;;;;;;17.87;100.00;100428.94;5208149;28;20476;-67
2022/08/16 02:12:19;;;;;;;15.00;12.00;;;;;;;17.94;100.00;100433.47;5202178;28;20034;-68
2022/08/16 02:14:50;;;;;;;17.88;12.35;;;;;;;17.87;100.00;100437.88;5206555;28;20045;-66
2022/08/16 02:17:22;;;;;;;18.55;12.82;;;;;;;17.81;100.00;100425.06;5225448;28;20033;-66
2022/08/16 02:19:53;;;;;;;18.10;12.65;;;;;;;17.83;100.00;100431.13;5250789;28;20026;-67
2022/08/16 02:22:25;;;;;;;17.75;12.77;;;;;;;17.70;100.00;100429.00;5248118;28;20430;-67
2022/08/16 02:24:56;;;;;;;15.27;13.60;;;;;;;17.82;100.00;100432.97;5259284;28;20062;-66
2022/08/16 02:27:27;;;;;;;15.93;13.38;;;;;;;17.69;100.00;100429.16;5237897;28;20058;-67
2022/08/16 02:29:58;;;;;;;15.20;13.10;;;;;;;17.70;100.00;100431.69;5251653;28;20019;-66
2022/08/16 02:32:30;;;;;;;19.63;14.00;;;;;;;17.63;100.00;100428.00;5239103;28;20026;-67
2022/08/16 02:35:01;;;;;;;16.27;13.77;;;;;;;17.63;100.00;100436.09;5274645;28;20033;-67
2022/08/16 02:37:32;;;;;;;16.33;13.63;;;;;;;17.57;100.00;100420.59;5209394;28;20026;-67
2022/08/16 02:40:04;;;;;;;17.42;13.65;;;;;;;17.55;100.00;100422.63;5215734;28;20033;-67
2022/08/16 02:42:36;;;;;;;16.65;13.65;;;;;;;17.56;100.00;100425.13;5211073;28;20146;-67
2022/08/16 02:45:08;;;;;;;18.08;14.05;;;;;;;17.53;100.00;100421.97;5212915;28;20033;-66
2022/08/16 02:47:39;;;;;;;17.58;14.38;;;;;;;17.45;100.00;100428.22;5210209;28;20118;-66
2022/08/16 02:50:10;;;;;;;17.50;13.88;;;;;;;17.41;100.00;100421.47;5232055;28;20034;-67
2022/08/16 02:52:42;;;;;;;18.75;15.38;;;;;;;17.48;100.00;100416.25;5246621;28;20484;-67
2022/08/16 02:55:13;;;;;;;15.30;13.70;;;;;;;17.39;100.00;100416.28;5253588;28;20456;-67
2022/08/16 02:57:44;;;;;;;16.55;14.05;;;;;;;17.32;100.00;100420.66;5242030;28;20054;-66
2022/08/16 03:00:16;;;;;;;17.55;14.32;;;;;;;17.32;100.00;100419.84;5214422;28;20031;-66
2022/08/16 03:02:48;;;;;;;16.00;14.30;;;;;;;17.28;100.00;100416.63;5245627;28;20030;-67
2022/08/16 03:05:20;;;;;;;16.15;14.45;;;;;;;17.31;100.00;100416.28;5236288;28;20050;-67
2022/08/16 03:07:51;;;;;;;18.05;15.52;;;;;;;17.23;100.00;100413.59;5239111;28;20033;-67
2022/08/16 03:10:22;;;;;;;16.08;14.38;;;;;;;17.28;100.00;100415.78;5223687;28;20261;-67
2022/08/16 03:12:54;;;;;;;17.60;14.25;;;;;;;17.42;100.00;100413.22;5236960;28;20025;-66
2022/08/16 03:15:26;;;;;;;15.60;13.68;;;;;;;17.21;100.00;100410.25;5251457;28;20047;-67
2022/08/16 03:17:57;;;;;;;16.63;14.82;;;;;;;17.30;100.00;100403.00;5243084;28;20034;-66
2022/08/16 03:20:28;;;;;;;17.20;14.82;;;;;;;17.17;100.00;100412.44;5219801;28;20034;-66
2022/08/16 03:23:00;;;;;;;19.27;15.52;;;;;;;17.20;100.00;100409.41;5236443;28;20033;-67
2022/08/16 03:25:33;;;;;;;15.93;14.25;;;;;;;17.21;100.00;100410.25;5232910;28;20027;-67
2022/08/16 03:28:06;;;;;;;19.23;14.27;;;;;;;17.14;100.00;100410.06;5232377;28;20110;-67
2022/08/16 03:30:37;;;;;;;16.63;14.85;;;;;;;17.10;100.00;100407.91;5223378;28;20029;-67
2022/08/16 03:33:09;;;;;;;17.17;15.00;;;;;;;17.13;100.00;100415.66;5245599;28;20030;-67
2022/08/16 03:35:41;;;;;;;17.20;15.27;;;;;;;17.11;100.00;100415.81;5222407;28;20448;-67
2022/08/16 03:38:14;;;;;;;16.63;14.88;;;;;;;17.04;100.00;100421.03;5227807;28;20062;-66
2022/08/16 03:40:46;;;;;;;17.38;14.18;;;;;;;17.15;100.00;100422.56;5232694;28;20034;-67
2022/08/16 03:43:17;;;;;;;18.95;15.15;;;;;;;17.00;100.00;100427.78;5230493;28;20050;-67
2022/08/16 03:45:51;;;;;;;18.70;15.63;;;;;;;16.97;100.00;100424.56;5250805;28;20020;-66
2022/08/16 03:48:25;;;;;;;18.63;15.55;;;;;;;16.96;100.00;100426.44;5237863;28;20037;-66
2022/08/16 03:50:56;;;;;;;17.05;15.10;;;;;;;16.97;100.00;100425.44;5235167;28;20092;-67
2022/08/16 03:53:28;;;;;;;18.38;15.88;;;;;;;16.96;100.00;100431.84;5215090;28;20065;-67
2022/08/16 03:56:00;;;;;;;17.55;15.75;;;;;;;16.93;100.00;100434.00;5236254;28;20034;-66
2022/08/16 03:58:31;;;;;;;18.65;16.52;;;;;;;16.94;100.00;100439.25;5216172;28;20317;-67
2022/08/16 04:01:03;;;;;;;20.17;17.17;;;;;;;16.96;100.00;100439.91;5211055;28;20033;-67
2022/08/16 04:03:35;;;;;;;22.08;17.42;;;;;;;17.03;100.00;100445.50;5214023;28;20463;-67
2022/08/16 04:06:07;;;;;;;22.17;18.52;;;;;;;16.95;100.00;100437.38;5235492;27;20091;-66
2022/08/16 04:08:38;;;;;;;19.52;17.42;;;;;;;16.94;100.00;100451.88;5233806;28;20528;-67
2022/08/16 04:11:09;;;;;;;19.27;17.23;;;;;;;17.01;100.00;100445.66;5244968;28;20033;-66
2022/08/16 04:13:41;;;;;;;21.30;17.70;;;;;;;17.10;100.00;100445.63;5243581;28;20472;-68
2022/08/16 04:16:13;;;;;;;20.52;18.33;;;;;;;16.93;100.00;100450.19;5215800;28;20118;-67
2022/08/16 04:18:45;;;;;;;20.25;18.10;;;;;;;16.95;100.00;100451.72;5234012;28;20109;-66
2022/08/16 04:21:16;;;;;;;20.38;17.85;;;;;;;16.90;100.00;100455.94;5220345;28;20109;-67
2022/08/16 04:23:48;;;;;;;21.10;18.77;;;;;;;16.91;100.00;100452.22;5233515;28;20041;-66
2022/08/16 04:26:19;;;;;;;23.20;18.67;;;;;;;16.91;100.00;100458.44;5250230;28;20114;-66
2022/08/16 04:28:50;;;;;;;21.20;19.00;;;;;;;17.03;100.00;100457.09;5239906;28;20019;-66
2022/08/16 04:31:22;;;;;;;21.17;18.95;;;;;;;17.05;100.00;100454.25;5236563;28;20038;-67
2022/08/16 04:33:58;;;;;;;21.35;18.70;;;;;;;17.04;100.00;100458.78;5261403;28;20468;-67
2022/08/16 04:36:29;;;;;;;21.08;18.85;;;;;;;17.00;100.00;100454.72;5248145;28;20654;-66
2022/08/16 04:39:00;;;;;;;20.33;18.15;;;;;;;17.07;100.00;100457.63;5235680;28;20047;-66
2022/08/16 04:41:32;;;;;;;24.02;19.77;;;;;;;17.09;100.00;100452.06;5259302;28;20467;-67
2022/08/16 04:44:04;;;;;;;24.88;19.02;;;;;;;17.04;100.00;100455.25;5216776;28;20057;-66
2022/08/16 04:46:35;;;;;;;24.45;20.38;;;;;;;17.05;100.00;100457.78;5238129;28;20034;-67
2022/08/16 04:49:07;;;;;;;22.15;19.75;;;;;;;17.02;100.00;100457.25;5224292;28;20155;-66
2022/08/16 04:51:41;;;;;;;23.98;19.77;;;;;;;17.03;100.00;100459.78;5206674;28;20167;-67
2022/08/16 04:54:12;;;;;;;23.08;20.63;;;;;;;17.02;100.00;100460.78;5207593;28;20391;-67
2022/08/16 04:56:43;;;;;;;23.92;20.45;;;;;;;17.13;100.00;100461.47;5197320;28;20038;-67
2022/08/16 04:59:14;;;;;;;22.55;20.20;;;;;;;17.03;100.00;100464.34;5208803;28;20026;-67
2022/08/16 05:01:46;;;;;;;21.65;19.45;;;;;;;17.03;100.00;100465.19;5208434;28;20144;-66
2022/08/16 05:04:17;;;;;;;22.60;19.73;;;;;;;17.08;100.00;100472.75;5210219;28;20106;-67
2022/08/16 05:06:49;;;;;;;24.52;20.08;;;;;;;17.14;100.00;100465.84;5205646;28;20479;-66
2022/08/16 05:09:20;;;;;;;22.33;19.75;;;;;;;17.11;100.00;100463.50;5205302;28;20067;-66
2022/08/16 05:11:52;;;;;;;22.50;20.23;;;;;;;17.10;100.00;100470.72;5228430;28;20022;-66
2022/08/16 05:14:23;;;;;;;23.40;20.20;;;;;;;17.11;100.00;100477.00;5211774;28;20087;-66
2022/08/16 05:16:54;;;;;;;22.73;20.00;;;;;;;17.15;100.00;100475.63;5207639;28;20026;-66
2022/08/16 05:19:26;;;;;;;21.77;19.42;;;;;;;17.26;100.00;100469.91;5207496;28;20065;-67
2022/08/16 05:21:57;;;;;;;22.90;20.52;;;;;;;17.17;100.00;100479.84;5204473;28;20040;-66
2022/08/16 05:24:29;;;;;;;22.92;19.92;;;;;;;17.21;100.00;100481.16;5208489;28;20021;-66
2022/08/16 05:27:00;;;;;;;23.20;19.73;;;;;;;17.23;100.00;100489.94;5207103;28;20505;-66
2022/08/16 05:29:32;;;;;;;21.45;19.27;;;;;;;17.22;100.00;100498.19;5204490;28;20104;-66
2022/08/16 05:32:04;;;;;;;24.58;20.88;;;;;;;17.25;100.00;100487.06;5199644;28;20026;-67
2022/08/16 05:34:35;;;;;;;22.83;20.15;;;;;;;17.28;100.00;100485.88;5211941;28;20026;-67
2022/08/16 05:37:07;;;;;;;22.38;20.00;;;;;;;17.35;100.00;100494.97;5208923;28;20033;-66
2022/08/16 05:39:38;;;;;;;22.42;19.98;;;;;;;17.31;100.00;100493.63;5200563;28;20044;-67
2022/08/16 05:42:09;;;;;;;23.58;20.67;;;;;;;17.37;100.00;100492.97;5202617;28;20034;-67
2022/08/16 05:44:40;;;;;;;23.00;20.60;;;;;;;17.35;100.00;100503.06;5167855;28;1025136;-67
2022/08/16 05:47:12;;;;;;;22.55;20.25;;;;;;;17.39;100.00;100497.19;5206623;28;20063;-66
2022/08/16 05:49:43;;;;;;;22.33;20.02;;;;;;;17.41;100.00;100500.56;5205570;28;20021;-66
2022/08/16 05:52:14;;;;;;;23.02;20.48;;;;;;;17.48;100.00;100506.09;5203663;28;20490;-66
2022/08/16 05:54:46;;;;;;;22.48;20.15;;;;;;;17.44;100.00;100497.50;5207374;28;20033;-66
2022/08/16 05:57:18;;;;;;;22.58;20.13;;;;;;;17.50;100.00;100501.38;5209556;28;20037;-67
2022/08/16 05:59:49;;;;;;;21.83;19.40;;;;;;;17.49;100.00;100505.09;5201795;28;20074;-66
2022/08/16 06:02:23;;;;;;;21.38;19.08;;;;;;;17.58;100.00;100508.59;5210846;28;20052;-67
2022/08/16 06:04:54;;;;;;;24.27;20.05;;;;;;;17.56;100.00;100511.47;5205773;28;20049;-67
2022/08/16 06:07:26;;;;;;;22.98;18.83;;;;;;;17.65;100.00;100523.09;5211017;28;20030;-67
2022/08/16 06:09:58;;;;;;;21.98;19.77;;;;;;;17.64;100.00;100518.69;5205769;28;20025;-67
2022/08/16 06:12:30;;;;;;;22.08;19.60;;;;;;;17.71;100.00;100524.28;5207599;28;20030;-67
2022/08/16 06:15:07;;;;;;;23.58;20.33;;;;;;;17.67;100.00;100523.75;5204766;28;20046;-67
2022/08/16 06:17:38;;;;;;;25.48;19.63;;;;;;;17.79;100.00;100521.53;5208237;28;20034;-66
2022/08/16 06:20:19;;;;;;;20.65;18.30;;;;;;;17.78;100.00;100520.72;5204584;28;20030;-67
2022/08/16 06:22:55;;;;;;;21.77;18.50;;;;;;;17.81;100.00;100525.78;5209077;28;20038;-67
2022/08/16 06:25:27;;;;;;;25.17;19.40;;;;;;;17.87;100.00;100528.81;5205361;28;20206;-68
2022/08/16 06:27:58;;;;;;;21.55;19.35;;;;;;;17.91;100.00;100531.00;5204134;28;20033;-67
2022/08/16 06:30:31;;;;;;;22.42;19.27;;;;;;;18.04;100.00;100527.75;5202932;28;20026;-68
2022/08/16 06:33:03;;;;;;;21.73;19.52;;;;;;;18.02;100.00;100540.56;5206421;28;20030;-67
2022/08/16 06:35:35;;;;;;;21.13;18.77;;;;;;;18.08;100.00;100534.47;5210277;28;20036;-68
2022/08/16 06:38:06;;;;;;;23.52;19.73;;;;;;;18.14;100.00;100536.50;5205672;28;20149;-68
2022/08/16 06:40:38;;;;;;;22.05;19.67;;;;;;;18.24;100.00;100541.69;5199535;28;20033;-68
2022/08/16 06:43:09;;;;;;;20.88;18.90;;;;;;;18.30;100.00;100537.44;5206267;28;20060;-67
2022/08/16 06:45:42;;;;;;;21.23;18.88;;;;;;;18.34;100.00;100536.06;5203387;28;20507;-67
2022/08/16 06:48:13;;;;;;;20.50;17.45;;;;;;;18.41;100.00;100537.06;5206267;28;20053;-68
2022/08/16 06:50:48;;;;;;;21.85;18.05;;;;;;;18.45;100.00;100538.38;5207668;28;20523;-67
2022/08/16 06:53:19;;;;;;;22.60;18.52;;;;;;;18.55;100.00;100536.31;5202606;28;20026;-67
2022/08/16 06:55:57;;;;;;;24.15;18.63;;;;;;;18.68;100.00;100532.16;5205138;28;20486;-68
2022/08/16 06:58:28;;;;;;;21.65;17.75;;;;;;;18.83;100.00;100543.09;5206738;28;20176;-68
2022/08/16 07:01:00;;;;;;;20.48;17.83;;;;;;;18.87;100.00;100541.72;5206742;28;20403;-68
2022/08/16 07:03:31;;;;;;;20.27;18.17;;;;;;;18.94;100.00;100545.38;5208479;28;20025;-68
2022/08/16 07:06:03;;;;;;;19.55;17.38;;;;;;;19.07;99.91;100550.19;5207774;28;20044;-67
2022/08/16 07:08:34;;;;;;;19.77;17.73;;;;;;;19.11;100.00;100549.66;5206033;28;20463;-68
2022/08/16 07:11:06;;;;;;;22.33;17.52;;;;;;;19.27;98.10;100548.69;5201362;28;20068;-68
2022/08/16 07:13:38;;;;;;;19.65;17.52;;;;;;;19.37;97.64;100549.28;5204859;28;20041;-68
2022/08/16 07:16:13;;;;;;;19.08;17.08;;;;;;;19.47;96.51;100553.59;5209840;28;20044;-67
2022/08/16 07:18:45;;;;;;;20.08;17.98;;;;;;;19.54;96.90;100559.94;5206065;28;20080;-67
2022/08/16 07:21:16;;;;;;;19.63;17.15;;;;;;;19.67;96.50;100560.16;5204871;28;20041;-67
2022/08/16 07:23:48;;;;;;;21.10;17.38;;;;;;;19.77;95.16;100557.22;5205026;28;20033;-67
2022/08/16 07:26:25;;;;;;;21.73;17.80;;;;;;;19.89;94.25;100565.75;5206552;28;20049;-68
2022/08/16 07:28:56;;;;;;;18.70;16.65;;;;;;;19.94;94.71;100566.00;5205150;28;20508;-68
2022/08/16 07:31:27;;;;;;;19.45;17.33;;;;;;;20.05;93.76;100565.56;5205641;28;20034;-67
2022/08/16 07:33:59;;;;;;;18.90;17.00;;;;;;;20.14;93.99;100566.31;5200825;28;20049;-67
2022/08/16 07:36:30;;;;;;;18.00;16.10;;;;;;;20.26;92.62;100569.38;5205976;28;20018;-68
2022/08/16 07:39:01;;;;;;;18.95;16.73;;;;;;;20.33;93.40;100573.03;5203568;28;20054;-68
2022/08/16 07:41:35;;;;;;;19.85;16.38;;;;;;;20.46;92.85;100573.22;5203543;28;20026;-67
2022/08/16 07:44:06;;;;;;;19.80;16.13;;;;;;;20.68;92.20;100581.44;5200863;28;20054;-68
2022/08/16 07:46:37;;;;;;;19.27;15.93;;;;;;;20.77;90.68;100585.72;5201354;28;20264;-68
2022/08/16 07:49:08;;;;;;;18.27;15.85;;;;;;;20.82;89.35;100577.00;5205333;28;20029;-67
2022/08/16 07:51:40;;;;;;;17.08;15.02;;;;;;;20.91;89.07;100583.97;5202119;28;20468;-68
2022/08/16 07:54:11;;;;;;;18.90;15.48;;;;;;;21.01;87.25;100584.50;5203523;28;20762;-66
2022/08/16 07:56:42;;;;;;;18.00;14.93;;;;;;;21.18;86.40;100585.09;5204339;28;20118;-66
2022/08/16 07:59:14;;;;;;;18.13;14.95;;;;;;;21.21;85.16;100584.72;5201369;28;20969;-66
2022/08/16 08:01:45;;;;;;;16.83;14.70;;;;;;;21.23;85.29;100587.22;5208843;28;20519;-66
2022/08/16 08:04:16;;;;;;;18.55;14.57;;;;;;;21.35;83.00;100586.50;5208405;28;20026;-66
2022/08/16 08:06:48;;;;;;;15.70;14.10;;;;;;;21.43;82.15;100584.69;5204518;28;20034;-66
2022/08/16 08:09:19;;;;;;;16.17;12.82;;;;;;;21.52;83.70;100586.28;5206427;28;20376;-66
2022/08/16 08:11:50;;;;;;;14.18;12.68;;;;;;;21.56;83.34;100590.28;5203309;28;20026;-65
2022/08/16 08:14:22;;;;;;;14.10;12.70;;;;;;;21.71;81.71;100596.47;5202577;28;20095;-66
2022/08/16 08:16:53;;;;;;;15.40;12.88;;;;;;;21.78;81.41;100601.09;5207124;28;20045;-66
2022/08/16 08:19:25;;;;;;;14.88;12.25;;;;;;;21.77;81.66;100596.72;5198795;28;21517;-66
2022/08/16 08:21:56;;;;;;;13.55;11.50;;;;;;;21.84;80.54;100601.16;5197788;28;20030;-66
2022/08/16 08:24:27;;;;;;;12.77;11.30;;;;;;;21.90;79.38;100602.25;5210763;28;20099;-66
2022/08/16 08:27:00;;;;;;;12.10;10.63;;;;;;;22.02;77.90;100603.38;5203577;28;20148;-66
2022/08/16 08:29:33;;;;;;;14.00;10.68;;;;;;;22.04;78.78;100595.03;5206524;28;20126;-66
2022/08/16 08:32:06;;;;;;;15.82;11.70;;;;;;;22.24;76.73;100595.13;5224765;28;20026;-66
2022/08/16 08:34:37;;;;;;;12.93;9.97;;;;;;;22.34;77.02;100597.53;5209052;28;20475;-66
2022/08/16 08:37:09;;;;;;;15.55;11.70;;;;;;;22.39;76.93;100595.06;5211756;28;20038;-66
2022/08/16 08:39:40;;;;;;;14.55;10.82;;;;;;;22.43;76.95;100594.44;5207896;28;20034;-66
2022/08/16 08:42:13;;;;;;;16.10;11.82;;;;;;;22.63;75.17;100599.97;5211106;28;20025;-66
2022/08/16 08:44:44;;;;;;;14.77;10.70;;;;;;;22.75;75.08;100599.41;5205194;28;20040;-66
2022/08/16 08:47:15;;;;;;;12.30;10.20;;;;;;;22.88;75.26;100604.88;5206974;28;20025;-66
2022/08/16 08:49:47;;;;;;;10.50;9.40;;;;;;;22.98;72.19;100601.78;5209598;28;20109;-66
2022/08/16 08:52:18;;;;;;;11.55;9.00;;;;;;;23.09;70.66;100603.94;5212398;28;20041;-66
2022/08/16 08:54:49;;;;;;;11.18;8.75;;;;;;;23.13;69.91;100610.63;5209020;28;20113;-66
2022/08/16 08:57:21;;;;;;;11.25;8.90;;;;;;;23.16;70.32;100612.94;5206212;28;20030;-67
2022/08/16 08:59:53;;;;;;;11.73;8.85;;;;;;;23.27;69.18;100601.44;5206970;28;20292;-66
2022/08/16 09:02:25;;;;;;;10.68;8.18;;;;;;;23.37;68.25;100616.53;5207467;28;20026;-66
2022/08/16 09:04:56;;;;;;;11.43;8.90;;;;;;;23.44;67.59;100618.22;5213753;28;20034;-66
2022/08/16 09:07:27;;;;;;;8.90;8.00;;;;;;;23.62;66.24;100622.19;5206432;28;20041;-65
2022/08/16 09:09:59;;;;;;;10.45;7.78;;;;;;;23.62;67.91;100617.59;5202222;28;20040;-65
2022/08/16 09:12:30;;;;;;;16.65;7.88;;;;;;;23.79;67.52;100619.94;5206144;28;20022;-65
2022/08/16 09:15:02;;;;;;;9.93;7.70;;;;;;;23.84;65.90;100611.97;5210188;28;20662;-65
2022/08/16 09:17:34;;;;;;;8.05;6.90;;;;;;;23.83;65.78;100623.91;5212226;28;20071;-65
2022/08/16 09:20:06;;;;;;;8.75;6.32;;;;;;;23.93;64.11;100618.88;5209487;28;20032;-65
2022/08/16 09:22:38;;;;;;;11.05;6.47;;;;;;;24.04;64.39;100625.56;5203839;28;20037;-65
2022/08/16 09:25:10;;;;;;;8.57;6.10;;;;;;;24.21;64.38;100624.06;5207082;28;20048;-65
2022/08/16 09:27:41;;;;;;;9.30;6.40;;;;;;;24.26;61.72;100629.72;5212371;28;20075;-65
2022/08/16 09:30:13;;;;;;;7.78;6.15;;;;;;;24.35;63.13;100619.41;5208287;28;20395;-65
2022/08/16 09:32:45;;;;;;;7.43;6.07;;;;;;;24.37;61.66;100622.78;5212641;28;20030;-65
2022/08/16 09:35:16;;;;;;;9.82;7.28;;;;;;;24.40;62.30;100622.34;5206867;28;20082;-65
2022/08/16 09:37:47;;;;;;;9.05;6.60;;;;;;;24.56;62.59;100620.22;5207761;28;20294;-65
2022/08/16 09:40:20;;;;;;;8.32;6.53;;;;;;;24.65;61.19;100636.16;5210521;28;20026;-65
2022/08/16 09:42:52;;;;;;;7.68;6.60;;;;;;;24.73;60.95;100632.34;5210932;28;20053;-65
2022/08/16 09:45:24;;;;;;;7.32;6.38;;;;;;;24.85;58.70;100627.91;5215467;28;20071;-65
2022/08/16 09:47:55;;;;;;;10.02;6.30;;;;;;;24.83;57.86;100627.28;5211903;28;20120;-65
2022/08/16 09:50:28;;;;;;;9.57;5.57;;;;;;;24.87;60.16;100626.81;5207932;28;20095;-65
2022/08/16 09:52:59;;;;;;;7.15;5.85;;;;;;;24.96;59.78;100622.78;5212969;28;20044;-65
2022/08/16 09:55:30;;;;;;;6.47;4.57;;;;;;;25.02;61.17;100627.38;5211777;28;20033;-66
2022/08/16 09:58:02;;;;;;;8.13;5.32;;;;;;;25.24;56.00;100627.94;5201393;28;20029;-65
2022/08/16 10:00:34;;;;;;;5.95;4.63;;;;;;;25.43;55.98;100623.38;5210587;28;20109;-65
2022/08/16 10:03:05;;;;;;;8.20;5.07;;;;;;;25.30;58.65;100629.78;5209432;28;20030;-65
2022/08/16 10:05:37;;;;;;;7.97;4.57;;;;;;;25.35;56.82;100631.81;5204817;28;20025;-65
2022/08/16 10:08:08;;;;;;;5.20;4.57;;;;;;;25.37;55.71;100632.44;5201470;28;20650;-65
2022/08/16 10:10:40;;;;;;;9.40;4.53;;;;;;;25.57;54.07;100633.16;5208729;28;20014;-65
2022/08/16 10:13:11;;;;;;;8.10;4.72;;;;;;;25.47;53.68;100634.69;5203906;28;20030;-65
2022/08/16 10:15:46;;;;;;;6.50;4.32;;;;;;;25.44;53.82;100628.59;5202309;28;20026;-65
2022/08/16 10:18:18;;;;;;;5.22;4.72;;;;;;;25.48;54.91;100625.44;5204154;28;20030;-65
2022/08/16 10:20:49;;;;;;;5.10;3.95;;;;;;;25.66;52.26;100630.13;5208359;28;20038;-65
2022/08/16 10:23:21;;;;;;;6.07;4.13;;;;;;;25.69;51.95;100633.25;5210749;28;20525;-65
2022/08/16 10:25:52;;;;;;;7.63;4.20;;;;;;;25.88;53.13;100630.59;5207902;28;20377;-65
2022/08/16 10:28:25;;;;;;;5.72;4.30;;;;;;;25.89;50.62;100630.38;5210690;28;20079;-65
2022/08/16 10:30:59;;;;;;;6.60;4.22;;;;;;;26.01;51.69;100634.06;5207001;28;20035;-65
2022/08/16 10:33:32;;;;;;;7.35;4.38;;;;;;;26.11;50.76;100629.97;5207383;28;20085;-65
2022/08/16 10:36:06;;;;;;;8.02;4.35;;;;;;;26.29;52.20;100630.00;5205177;28;20088;-65
2022/08/16 10:38:39;;;;;;;7.35;3.92;;;;;;;26.48;51.29;100632.75;5209718;28;20546;-66
2022/08/16 10:41:12;;;;;;;7.35;4.05;;;;;;;26.53;51.73;100628.25;5207327;28;20446;-65
2022/08/16 10:43:43;;;;;;;5.32;4.05;;;;;;;26.96;49.01;100629.22;5207716;28;21375;-65
2022/08/16 10:46:14;;;;;;;8.43;3.88;;;;;;;27.06;48.38;100640.47;5210093;28;20200;-65
2022/08/16 10:48:46;;;;;;;6.45;3.72;;;;;;;27.03;47.73;100645.56;5211374;28;20377;-65
2022/08/16 10:51:17;;;;;;;7.43;4.00;;;;;;;27.23;46.52;100631.59;5204536;28;20038;-65
2022/08/16 10:53:49;;;;;;;6.65;3.70;;;;;;;27.24;46.69;100628.63;5210771;28;20066;-65
2022/08/16 10:56:23;;;;;;;6.13;3.90;;;;;;;27.31;48.08;100637.63;5208963;28;20447;-66
2022/08/16 10:58:56;;;;;;;6.05;3.85;;;;;;;27.35;47.07;100632.50;5205006;28;20429;-65
2022/08/16 11:01:27;;;;;;;5.80;4.50;;;;;;;27.32;46.33;100639.28;5205927;28;20053;-66
2022/08/16 11:04:00;;;;;;;6.38;4.05;;;;;;;27.41;46.31;100649.94;5208283;28;20124;-66
2022/08/16 11:06:31;;;;;;;9.57;4.30;;;;;;;27.27;46.33;100643.78;5207697;28;20420;-66
2022/08/16 11:09:03;;;;;;;6.82;4.40;;;;;;;27.39;44.79;100644.66;5210664;28;20034;-66
2022/08/16 11:11:34;;;;;;;6.05;4.40;;;;;;;27.36;45.95;100650.59;5205490;28;20075;-66
2022/08/16 11:14:05;;;;;;;6.65;4.63;;;;;;;27.30;46.83;100657.03;5199446;28;20483;-66
2022/08/16 11:16:37;;;;;;;5.80;4.25;;;;;;;27.21;46.09;100653.72;5196831;28;20494;-66
2022/08/16 11:19:08;;;;;;;5.45;4.30;;;;;;;27.08;47.53;100651.22;5201504;28;20095;-66
2022/08/16 11:21:42;;;;;;;5.28;4.00;;;;;;;26.95;45.11;100654.94;5212802;28;20037;-65
2022/08/16 11:24:13;;;;;;;6.30;4.20;;;;;;;26.90;45.53;100647.41;5205804;28;20514;-66
2022/08/16 11:26:44;;;;;;;7.75;4.20;;;;;;;26.94;47.08;100643.16;5208083;28;20064;-66
2022/08/16 11:29:15;;;;;;;6.55;4.10;;;;;;;27.08;46.58;100651.22;5208520;28;20065;-66
2022/08/16 11:31:48;;;;;;;5.85;3.88;;;;;;;27.08;48.65;100654.78;5206772;28;20026;-65